createdAt,value
2023-03-06T00:02:15.533Z,12.02
2023-03-06T00:04:41.869Z,55.25
2023-03-06T00:07:08.296Z,79.57
2023-03-06T00:09:34.609Z,26.20
2023-03-06T00:12:01.000Z,14.13
2023-03-06T00:14:27.408Z,13.40
2023-03-06T00:16:54.810Z,11.45
2023-03-06T00:19:21.387Z,11.95
2023-03-06T00:21:47.764Z,9.35
2023-03-06T00:24:14.207Z,17.88
2023-03-06T00:26:41.278Z,12.27
2023-03-06T00:29:08.484Z,12.18
2023-03-06T00:31:35.967Z,10.65
2023-03-06T00:34:02.998Z,18.75
2023-03-06T00:36:29.378Z,12.57
2023-03-06T00:38:55.715Z,9.38
2023-03-06T00:41:22.113Z,12.15
2023-03-06T00:43:48.495Z,9.63
2023-03-06T00:46:14.876Z,9.18
2023-03-06T00:48:41.225Z,8.95
2023-03-06T00:51:07.661Z,7.85
2023-03-06T00:53:33.976Z,8.23
2023-03-06T00:56:00.310Z,7.70
2023-03-06T00:58:26.672Z,7.22
2023-03-06T01:00:53.037Z,7.65
2023-03-06T01:03:19.401Z,7.10
2023-03-06T01:05:45.889Z,7.35
2023-03-06T01:08:12.222Z,7.40
2023-03-06T01:10:39.420Z,6.80
2023-03-06T01:13:05.871Z,7.13
2023-03-06T01:15:32.227Z,7.20
2023-03-06T01:17:58.624Z,7.65
2023-03-06T01:20:25.062Z,7.13
2023-03-06T01:22:51.484Z,7.50
2023-03-06T01:25:17.982Z,8.80
2023-03-06T01:27:44.337Z,7.18
2023-03-06T01:30:11.287Z,6.72
2023-03-06T01:32:37.672Z,7.18
2023-03-06T01:35:04.400Z,7.65
2023-03-06T01:37:30.874Z,7.85
2023-03-06T01:39:57.297Z,6.93
2023-03-06T01:42:23.692Z,9.15
2023-03-06T01:44:59.967Z,8.82
2023-03-06T01:47:26.348Z,7.38
2023-03-06T01:49:53.244Z,8.52
2023-03-06T01:52:21.987Z,8.38
2023-03-06T01:54:50.634Z,8.38
2023-03-06T01:57:28.812Z,7.82
2023-03-06T02:00:07.105Z,8.50
2023-03-06T02:02:33.603Z,8.35
2023-03-06T02:05:01.038Z,9.48
2023-03-06T02:07:28.289Z,10.43
2023-03-06T02:09:54.635Z,9.57
2023-03-06T02:12:21.706Z,8.40
2023-03-06T02:14:48.504Z,8.57
2023-03-06T02:17:16.132Z,11.20
2023-03-06T02:19:45.241Z,8.77
2023-03-06T02:22:11.569Z,9.40
2023-03-06T02:24:50.167Z,9.00
2023-03-06T02:27:17.623Z,14.07
2023-03-06T02:29:44.381Z,9.70
2023-03-06T02:32:10.873Z,8.73
2023-03-06T02:34:37.249Z,9.35
2023-03-06T02:37:08.747Z,10.50
2023-03-06T02:39:38.565Z,10.25
2023-03-06T02:42:04.905Z,10.93
2023-03-06T02:44:32.435Z,16.88
2023-03-06T02:46:58.817Z,8.93
2023-03-06T02:49:26.508Z,8.07
2023-03-06T02:51:53.052Z,8.85
2023-03-06T02:54:19.460Z,10.05
2023-03-06T02:56:46.099Z,8.80
2023-03-06T02:59:12.608Z,10.25
2023-03-06T03:01:39.020Z,11.10
2023-03-06T03:04:05.762Z,11.25
2023-03-06T03:06:32.110Z,11.95
2023-03-06T03:08:58.430Z,12.40
2023-03-06T03:11:24.752Z,12.07
2023-03-06T03:13:51.070Z,12.45
2023-03-06T03:16:17.470Z,22.75
2023-03-06T03:18:44.543Z,24.77
2023-03-06T03:21:12.084Z,36.37
2023-03-06T03:23:38.552Z,26.63
2023-03-06T03:26:08.163Z,31.38
2023-03-06T03:28:34.511Z,37.80
2023-03-06T03:31:08.553Z,35.10
2023-03-06T03:33:35.143Z,32.92
2023-03-06T03:36:02.989Z,32.92
2023-03-06T03:38:29.691Z,28.42
2023-03-06T03:40:56.161Z,17.98
2023-03-06T03:43:22.499Z,24.33
2023-03-06T03:45:48.825Z,26.15
2023-03-06T03:48:15.153Z,40.15
2023-03-06T03:50:41.492Z,22.10
2023-03-06T03:53:07.885Z,28.38
2023-03-06T03:55:34.221Z,12.48
2023-03-06T03:58:00.606Z,11.27
2023-03-06T04:00:26.935Z,12.20
2023-03-06T04:02:53.315Z,8.88
2023-03-06T04:05:19.735Z,9.30
2023-03-06T04:07:46.097Z,11.02
2023-03-06T04:10:12.738Z,10.38
2023-03-06T04:12:39.111Z,12.25
2023-03-06T04:15:06.127Z,9.07
2023-03-06T04:17:35.424Z,10.20
2023-03-06T04:20:02.444Z,8.55
2023-03-06T04:22:28.834Z,8.83
2023-03-06T04:24:55.236Z,9.07
2023-03-06T04:27:21.647Z,8.48
2023-03-06T04:29:48.021Z,10.20
2023-03-06T04:32:14.898Z,9.23
2023-03-06T04:34:41.314Z,7.97
2023-03-06T04:37:11.457Z,9.82
2023-03-06T04:39:37.766Z,7.15
2023-03-06T04:42:04.249Z,7.63
2023-03-06T04:44:30.684Z,8.00
2023-03-06T04:46:57.054Z,6.47
2023-03-06T04:49:23.400Z,6.97
2023-03-06T04:51:49.976Z,5.80
2023-03-06T04:54:18.891Z,6.47
2023-03-06T04:56:45.362Z,7.25
2023-03-06T04:59:11.735Z,8.20
2023-03-06T05:01:38.046Z,9.70
2023-03-06T05:04:04.495Z,8.15
2023-03-06T05:06:30.848Z,9.98
2023-03-06T05:08:57.257Z,10.50
2023-03-06T05:11:23.665Z,8.77
2023-03-06T05:13:50.376Z,9.32
2023-03-06T05:16:16.726Z,15.68
2023-03-06T05:18:43.076Z,13.75
2023-03-06T05:21:09.853Z,11.38
2023-03-06T05:23:38.435Z,9.90
2023-03-06T05:26:06.898Z,10.52
2023-03-06T05:28:33.235Z,10.13
2023-03-06T05:31:01.008Z,10.25
2023-03-06T05:33:28.647Z,9.93
2023-03-06T05:35:55.050Z,9.25
2023-03-06T05:38:23.074Z,18.45
2023-03-06T05:43:15.688Z,23.50
2023-03-06T05:45:42.092Z,10.65
2023-03-06T05:48:08.486Z,10.70
2023-03-06T05:50:34.824Z,11.07
2023-03-06T05:53:01.409Z,11.10
2023-03-06T05:55:27.756Z,12.77
2023-03-06T05:57:54.144Z,16.77
2023-03-06T06:00:21.029Z,12.13
2023-03-06T06:02:47.372Z,11.98
2023-03-06T06:05:13.879Z,13.77
2023-03-06T06:07:40.579Z,11.32
2023-03-06T06:10:07.308Z,23.80
2023-03-06T06:12:33.857Z,13.57
2023-03-06T06:15:00.220Z,10.32
2023-03-06T06:17:26.595Z,22.45
2023-03-06T06:19:52.932Z,13.35
2023-03-06T06:22:19.267Z,12.82
2023-03-06T06:24:45.593Z,12.80
2023-03-06T06:27:12.013Z,7.63
2023-03-06T06:29:38.325Z,10.43
2023-03-06T06:32:04.796Z,11.73
2023-03-06T06:34:31.920Z,8.32
2023-03-06T06:36:58.315Z,5.27
2023-03-06T06:39:24.757Z,5.97
2023-03-06T06:42:09.727Z,6.57
2023-03-06T06:44:39.303Z,5.47
2023-03-06T06:47:24.010Z,9.90
2023-03-06T06:49:55.335Z,7.00
2023-03-06T06:52:22.347Z,9.20
2023-03-06T06:54:48.752Z,9.38
2023-03-06T06:57:15.583Z,7.20
2023-03-06T06:59:42.093Z,5.82
2023-03-06T07:02:10.195Z,10.38
2023-03-06T07:04:36.531Z,9.32
2023-03-06T07:07:03.547Z,8.05
2023-03-06T07:09:30.911Z,8.82
2023-03-06T07:11:57.562Z,7.03
2023-03-06T07:14:24.091Z,6.15
2023-03-06T07:16:50.407Z,7.10
2023-03-06T07:19:16.782Z,8.80
2023-03-06T07:21:43.149Z,7.55
2023-03-06T07:24:09.490Z,9.77
2023-03-06T07:26:35.879Z,8.93
2023-03-06T07:29:03.561Z,7.97
2023-03-06T07:31:30.383Z,7.32
2023-03-06T07:33:56.739Z,9.55
2023-03-06T07:36:23.318Z,11.23
2023-03-06T07:38:49.653Z,12.43
2023-03-06T07:41:17.145Z,9.23
2023-03-06T07:43:44.201Z,22.67
2023-03-06T07:46:10.777Z,55.87
2023-03-06T07:48:37.669Z,24.92
2023-03-06T07:51:05.280Z,24.30
2023-03-06T07:53:32.254Z,21.27
2023-03-06T07:55:58.696Z,45.75
2023-03-06T07:58:25.166Z,115.95
2023-03-06T08:00:51.566Z,52.47
2023-03-06T08:03:17.954Z,53.22
2023-03-06T08:05:44.882Z,55.90
2023-03-06T08:08:11.696Z,73.95
2023-03-06T08:10:38.041Z,58.97
2023-03-06T08:13:04.505Z,39.17
2023-03-06T08:15:30.887Z,18.27
2023-03-06T08:17:57.234Z,9.30
2023-03-06T08:20:23.573Z,11.57
2023-03-06T08:22:49.970Z,8.52
2023-03-06T08:25:16.302Z,9.00
2023-03-06T08:27:43.341Z,11.20
2023-03-06T08:30:10.100Z,26.50
2023-03-06T08:32:36.874Z,6.80
2023-03-06T08:35:04.151Z,7.25
2023-03-06T08:37:30.522Z,11.80
2023-03-06T08:39:56.853Z,10.00
2023-03-06T08:42:23.309Z,20.08
2023-03-06T08:44:49.749Z,18.23
2023-03-06T08:47:16.137Z,33.05
2023-03-06T08:49:42.489Z,9.68
2023-03-06T08:52:08.902Z,9.82
2023-03-06T08:54:35.805Z,8.52
2023-03-06T08:57:02.292Z,5.75
2023-03-06T08:59:28.627Z,38.17
2023-03-06T09:01:55.061Z,15.43
2023-03-06T09:04:21.539Z,50.08
2023-03-06T09:06:47.970Z,8.20
2023-03-06T09:09:14.410Z,80.40
2023-03-06T09:11:40.745Z,52.65
2023-03-06T09:14:07.357Z,9.77
2023-03-06T09:16:33.767Z,58.50
2023-03-06T09:19:00.249Z,5.18
2023-03-06T09:21:28.217Z,8.90
2023-03-06T09:23:54.870Z,4.25
2023-03-06T09:26:21.258Z,5.00
2023-03-06T09:28:47.679Z,7.22
2023-03-06T09:31:15.691Z,4.32
2023-03-06T09:33:42.386Z,5.28
2023-03-06T09:36:10.393Z,3.45
2023-03-06T09:38:36.727Z,2.50
2023-03-06T09:41:05.264Z,3.30
2023-03-06T09:43:38.008Z,4.35
2023-03-06T09:46:16.411Z,5.00
2023-03-06T09:48:52.742Z,2.83
2023-03-06T09:51:21.856Z,3.90
2023-03-06T09:53:48.183Z,5.70
2023-03-06T09:56:21.997Z,4.88
2023-03-06T09:58:49.863Z,3.28
2023-03-06T10:01:28.043Z,2.50
2023-03-06T10:03:57.845Z,5.78
2023-03-06T10:06:26.692Z,5.57
2023-03-06T10:09:02.408Z,12.40
2023-03-06T10:11:40.801Z,11.80
2023-03-06T10:14:14.109Z,9.52
2023-03-06T10:16:40.533Z,6.45
2023-03-06T10:19:17.355Z,6.60
2023-03-06T10:21:52.428Z,3.65
2023-03-06T10:24:26.423Z,4.95
2023-03-06T10:27:10.413Z,7.22
2023-03-06T10:29:56.358Z,3.63
2023-03-06T10:32:47.466Z,21.45
2023-03-06T10:35:22.543Z,17.92
2023-03-06T10:37:49.090Z,5.50
2023-03-06T10:40:20.375Z,4.25
2023-03-06T10:42:46.815Z,21.23
2023-03-06T10:45:16.711Z,4.32
2023-03-06T10:47:44.173Z,5.28
2023-03-06T10:52:36.802Z,9.63
2023-03-06T10:55:21.220Z,4.78
2023-03-06T10:57:47.554Z,2.83
2023-03-06T11:00:33.518Z,3.92
2023-03-06T11:03:26.328Z,4.20
2023-03-06T11:06:04.584Z,11.05
2023-03-06T11:08:31.413Z,8.55
2023-03-06T11:11:03.839Z,5.75
2023-03-06T11:13:32.062Z,5.88
2023-03-06T11:16:13.476Z,2.47
2023-03-06T11:18:40.799Z,3.03
2023-03-06T11:21:24.284Z,4.15
2023-03-06T11:23:51.291Z,5.07
2023-03-06T11:26:17.782Z,4.93
2023-03-06T11:28:56.392Z,3.05
2023-03-06T11:31:24.133Z,3.25
2023-03-06T11:36:36.166Z,1.80
2023-03-06T11:39:04.548Z,7.28
2023-03-06T11:41:39.056Z,3.40
2023-03-06T11:44:05.379Z,2.65
2023-03-06T11:46:38.522Z,3.55
2023-03-06T11:49:11.128Z,3.92
2023-03-06T11:51:40.024Z,1.70
2023-03-06T11:54:09.460Z,1.40
2023-03-06T11:56:35.777Z,2.00
2023-03-06T11:59:05.146Z,1.65
2023-03-06T12:01:34.513Z,6.00
2023-03-06T12:04:00.874Z,1.85
2023-03-06T12:06:42.567Z,0.82
2023-03-06T12:09:12.071Z,1.35
2023-03-06T12:12:00.986Z,3.97
2023-03-06T12:14:33.889Z,0.98
2023-03-06T12:17:15.202Z,1.10
2023-03-06T12:19:55.968Z,3.00
2023-03-06T12:22:31.354Z,4.28
2023-03-06T12:25:03.892Z,1.88
2023-03-06T12:27:46.921Z,2.75
2023-03-06T12:30:16.094Z,1.70
2023-03-06T12:32:48.440Z,1.67
2023-03-06T12:35:33.773Z,3.75
2023-03-06T12:38:18.670Z,1.80
2023-03-06T12:40:54.276Z,2.55
2023-03-06T12:43:40.141Z,1.65
2023-03-06T12:46:11.402Z,1.30
2023-03-06T12:48:38.597Z,1.55
2023-03-06T12:51:06.424Z,2.30
2023-03-06T12:53:33.866Z,3.80
2023-03-06T12:56:01.182Z,2.65
2023-03-06T12:58:30.431Z,4.85
2023-03-06T13:01:13.992Z,12.43
2023-03-06T13:03:59.324Z,4.55
2023-03-06T13:06:44.991Z,2.85
2023-03-06T13:09:22.210Z,1.70
2023-03-06T13:11:51.553Z,1.90
2023-03-06T13:14:30.787Z,3.65
2023-03-06T13:17:17.087Z,3.53
2023-03-06T13:19:43.608Z,4.57
2023-03-06T13:22:29.496Z,2.83
2023-03-06T13:25:14.789Z,2.40
2023-03-06T13:27:46.533Z,2.17
2023-03-06T13:30:22.211Z,5.60
2023-03-06T13:32:49.376Z,1.17
2023-03-06T13:35:32.097Z,1.83
2023-03-06T13:37:59.158Z,4.28
2023-03-06T13:40:26.044Z,0.90
2023-03-06T13:42:52.676Z,5.57
2023-03-06T13:45:34.479Z,4.13
2023-03-06T13:48:37.642Z,4.30
2023-03-06T13:50:49.388Z,2.25
2023-03-06T13:53:18.839Z,0.43
2023-03-06T13:56:06.412Z,1.25
2023-03-06T13:58:38.578Z,3.33
2023-03-06T14:01:16.057Z,1.05
2023-03-06T14:03:51.647Z,1.25
2023-03-06T14:06:44.453Z,0.57
2023-03-06T14:09:18.915Z,3.30
2023-03-06T14:11:54.236Z,4.90
2023-03-06T14:14:28.099Z,5.03
2023-03-06T14:16:55.036Z,5.13
2023-03-06T14:19:22.620Z,7.53
2023-03-06T14:21:56.810Z,10.25
2023-03-06T14:24:49.284Z,5.63
2023-03-06T14:27:17.049Z,5.07
2023-03-06T14:32:11.019Z,2.67
2023-03-06T14:34:39.981Z,0.98
2023-03-06T14:37:18.442Z,2.67
2023-03-06T14:39:45.063Z,1.83
2023-03-06T14:42:19.088Z,4.72
2023-03-06T14:44:46.199Z,1.77
2023-03-06T14:47:12.541Z,2.17
2023-03-06T14:49:38.868Z,1.55
2023-03-06T14:52:05.233Z,3.38
2023-03-06T14:54:33.309Z,2.28
2023-03-06T14:57:08.475Z,2.10
2023-03-06T14:59:39.219Z,2.35
2023-03-06T15:02:08.887Z,4.28
2023-03-06T15:04:38.938Z,1.27
2023-03-06T15:07:07.670Z,4.18
2023-03-06T15:09:35.851Z,2.25
2023-03-06T15:12:04.385Z,2.85
2023-03-06T15:14:40.993Z,1.63
2023-03-06T15:17:19.451Z,3.15
2023-03-06T15:19:46.928Z,1.00
2023-03-06T15:22:25.476Z,3.72
2023-03-06T15:24:51.906Z,3.70
2023-03-06T15:27:19.796Z,4.32
2023-03-06T15:32:14.003Z,2.42
2023-03-06T15:34:40.532Z,3.33
2023-03-06T15:37:25.656Z,3.55
2023-03-06T15:40:02.174Z,6.70
2023-03-06T15:42:29.017Z,5.05
2023-03-06T15:44:56.489Z,4.72
2023-03-06T15:47:23.327Z,3.03
2023-03-06T15:49:52.683Z,3.72
2023-03-06T15:52:22.706Z,3.45
2023-03-06T15:54:49.303Z,2.45
2023-03-06T15:57:20.346Z,4.07
2023-03-06T15:59:46.692Z,3.83
2023-03-06T16:02:17.411Z,4.53
2023-03-06T16:04:44.290Z,9.50
2023-03-06T16:07:11.177Z,4.32
2023-03-06T16:09:37.490Z,5.20
2023-03-06T16:12:04.331Z,6.90
2023-03-06T16:14:30.865Z,4.55
2023-03-06T16:16:57.497Z,5.18
2023-03-06T16:19:26.648Z,4.53
2023-03-06T16:21:54.702Z,10.60
2023-03-06T16:24:21.198Z,5.20
2023-03-06T16:26:50.696Z,5.03
2023-03-06T16:29:18.505Z,4.60
2023-03-06T16:34:11.779Z,2.58
2023-03-06T16:36:38.209Z,5.22
2023-03-06T16:39:04.734Z,3.28
2023-03-06T16:41:31.200Z,3.47
2023-03-06T16:43:57.762Z,5.63
2023-03-06T16:46:24.482Z,2.08
2023-03-06T16:48:51.271Z,3.97
2023-03-06T16:51:19.101Z,2.53
2023-03-06T16:53:45.640Z,2.95
2023-03-06T16:56:13.031Z,2.13
2023-03-06T16:58:40.068Z,1.55
2023-03-06T17:01:07.125Z,2.60
2023-03-06T17:03:34.148Z,2.50
2023-03-06T17:06:00.992Z,4.03
2023-03-06T17:08:27.462Z,3.17
2023-03-06T17:10:53.821Z,1.52
2023-03-06T17:13:20.432Z,2.15
2023-03-06T17:15:56.047Z,2.08
2023-03-06T17:18:24.044Z,2.75
2023-03-06T17:20:51.435Z,2.70
2023-03-06T17:23:22.421Z,2.33
2023-03-06T17:25:48.773Z,6.20
2023-03-06T17:28:15.129Z,3.38
2023-03-06T17:30:41.511Z,2.60
2023-03-06T17:33:07.844Z,2.45
2023-03-06T17:35:35.266Z,2.72
2023-03-06T17:38:01.792Z,2.08
2023-03-06T17:40:28.132Z,3.20
2023-03-06T17:42:54.446Z,4.45
2023-03-06T17:45:20.783Z,6.28
2023-03-06T17:47:49.074Z,3.35
2023-03-06T17:50:15.517Z,6.15
2023-03-06T17:52:41.860Z,7.47
2023-03-06T17:55:08.589Z,3.67
2023-03-06T17:57:35.000Z,5.88
2023-03-06T18:00:02.419Z,5.45
2023-03-06T18:02:28.801Z,5.60
2023-03-06T18:04:55.734Z,6.93
2023-03-06T18:07:22.160Z,7.53
2023-03-06T18:09:48.471Z,7.20
2023-03-06T18:12:14.868Z,6.13
2023-03-06T18:14:41.204Z,5.20
2023-03-06T18:17:07.517Z,4.50
2023-03-06T18:19:33.863Z,2.92
2023-03-06T18:22:00.552Z,6.15
2023-03-06T18:24:26.944Z,8.93
2023-03-06T18:26:53.250Z,6.22
2023-03-06T18:29:19.603Z,9.82
2023-03-06T18:31:49.802Z,7.00
2023-03-06T18:34:17.841Z,7.22
2023-03-06T18:39:13.761Z,19.42
2023-03-06T18:41:40.105Z,10.73
2023-03-06T18:44:06.548Z,6.32
2023-03-06T18:46:34.288Z,6.68
2023-03-06T18:49:00.818Z,6.28
2023-03-06T18:51:27.232Z,19.35
2023-03-06T18:53:55.812Z,19.15
2023-03-06T18:56:22.783Z,61.22
2023-03-06T18:58:50.355Z,10.75
2023-03-06T19:01:17.341Z,11.02
2023-03-06T19:03:43.776Z,24.37
2023-03-06T19:06:11.416Z,203.80
2023-03-06T19:08:38.711Z,131.80
2023-03-06T19:11:06.445Z,108.97
2023-03-06T19:13:32.828Z,25.73
2023-03-06T19:15:59.354Z,6.20
2023-03-06T19:18:26.433Z,44.90
2023-03-06T19:20:53.552Z,7.30
2023-03-06T19:23:21.129Z,18.77
2023-03-06T19:25:57.093Z,10.70
2023-03-06T19:28:23.464Z,19.60
2023-03-06T19:30:49.812Z,6.28
2023-03-06T19:33:16.521Z,9.38
2023-03-06T19:35:42.973Z,4.95
2023-03-06T19:38:10.211Z,7.03
2023-03-06T19:40:36.880Z,4.43
2023-03-06T19:43:03.457Z,15.18
2023-03-06T19:45:29.776Z,9.77
2023-03-06T19:48:00.713Z,5.70
2023-03-06T19:50:30.457Z,6.57
2023-03-06T19:52:57.409Z,3.40
2023-03-06T19:55:26.248Z,8.45
2023-03-06T19:57:53.031Z,5.03
2023-03-06T20:00:19.515Z,6.53
2023-03-06T20:02:45.920Z,13.07
2023-03-06T20:05:12.415Z,5.55
2023-03-06T20:07:38.733Z,3.15
2023-03-06T20:10:05.285Z,3.30
2023-03-06T20:12:33.141Z,14.55
2023-03-06T20:14:59.658Z,18.92
2023-03-06T20:17:26.021Z,8.90
2023-03-06T20:19:52.538Z,2.70
2023-03-06T20:22:21.546Z,8.65
2023-03-06T20:24:47.866Z,2.88
2023-03-06T20:27:14.181Z,6.15
2023-03-06T20:29:44.588Z,6.32
2023-03-06T20:32:12.505Z,7.15
2023-03-06T20:37:05.926Z,6.63
2023-03-06T20:39:32.414Z,12.65
2023-03-06T20:41:59.978Z,6.60
2023-03-06T20:44:26.739Z,7.30
2023-03-06T20:46:53.105Z,4.68
2023-03-06T20:49:19.527Z,4.30
2023-03-06T20:51:45.842Z,4.97
2023-03-06T20:54:13.248Z,18.33
2023-03-06T20:56:41.100Z,19.75
2023-03-06T20:59:10.517Z,5.15
2023-03-06T21:01:41.524Z,6.20
2023-03-06T21:04:13.503Z,7.80
2023-03-06T21:06:40.806Z,4.63
2023-03-06T21:09:07.234Z,5.20
2023-03-06T21:11:34.269Z,3.45
2023-03-06T21:14:00.906Z,8.10
2023-03-06T21:16:27.996Z,4.53
2023-03-06T21:18:55.266Z,4.73
2023-03-06T21:21:22.929Z,5.10
2023-03-06T21:23:49.740Z,5.88
2023-03-06T21:26:17.790Z,12.57
2023-03-06T21:28:44.234Z,14.10
2023-03-06T21:31:11.489Z,7.20
2023-03-06T21:33:38.352Z,33.35
2023-03-06T21:36:05.272Z,12.30
2023-03-06T21:38:31.934Z,5.07
2023-03-06T21:41:06.256Z,5.93
2023-03-06T21:43:32.614Z,10.15
2023-03-06T21:45:59.304Z,6.32
2023-03-06T21:48:25.646Z,12.27
2023-03-06T21:50:52.079Z,31.63
2023-03-06T21:53:18.395Z,27.75
2023-03-06T21:55:44.713Z,6.57
2023-03-06T21:58:11.061Z,5.30
2023-03-06T22:00:38.235Z,20.88
2023-03-06T22:03:04.868Z,19.75
2023-03-06T22:05:33.997Z,31.90
2023-03-06T22:08:00.319Z,31.08
2023-03-06T22:10:26.668Z,19.15
2023-03-06T22:12:53.049Z,16.58
2023-03-06T22:15:21.736Z,14.52
2023-03-06T22:17:48.660Z,18.02
2023-03-06T22:20:15.418Z,12.88
2023-03-06T22:22:42.246Z,9.98
2023-03-06T22:25:09.169Z,10.63
2023-03-06T22:27:35.591Z,14.68
2023-03-06T22:30:01.903Z,13.52
2023-03-06T22:32:28.331Z,12.05
2023-03-06T22:34:54.715Z,12.45
2023-03-06T22:37:21.019Z,11.95
2023-03-06T22:39:47.695Z,17.90
2023-03-06T22:42:14.039Z,15.70
2023-03-06T22:44:40.352Z,14.77
2023-03-06T22:47:06.694Z,17.77
2023-03-06T22:49:33.060Z,13.35
2023-03-06T22:51:59.376Z,12.35
2023-03-06T22:54:25.770Z,13.05
2023-03-06T22:56:52.109Z,11.82
2023-03-06T22:59:18.437Z,13.43
2023-03-06T23:01:44.793Z,12.82
2023-03-06T23:04:11.448Z,12.13
2023-03-06T23:06:39.832Z,12.20
2023-03-06T23:09:08.069Z,10.43
2023-03-06T23:11:34.822Z,14.15
2023-03-06T23:14:01.416Z,15.93
2023-03-06T23:16:27.753Z,12.25
2023-03-06T23:18:54.185Z,12.88
2023-03-06T23:21:21.509Z,11.73
2023-03-06T23:23:49.113Z,9.20
2023-03-06T23:26:15.958Z,9.00
2023-03-06T23:28:42.482Z,8.68
2023-03-06T23:31:09.543Z,13.32
2023-03-06T23:33:36.914Z,10.47
2023-03-06T23:36:04.260Z,12.45
2023-03-06T23:38:30.634Z,10.57
2023-03-06T23:41:01.054Z,9.07
2023-03-06T23:43:27.605Z,9.57
2023-03-06T23:45:54.807Z,9.35
2023-03-06T23:48:21.351Z,5.03
2023-03-06T23:50:47.688Z,9.98
2023-03-06T23:53:14.618Z,8.10
2023-03-06T23:55:45.413Z,9.98
2023-03-06T23:58:12.475Z,10.50
